Terminal Aerodrome Forecast
Issued by NWS

Home | Current Version | Previous Version | Text Only | Print | Product List | Glossary On
Versions: 1 2 3 4 5 6 7 8 9 10 11 12 13 14 15 16 17 18 19 20 21 22 23 24 25 26 27 28 29 30 31 32 33 34 35 36 37 38 39 40 41 42 43 44
000
FTUS46 KLOX 300500
TAFLAX
TAF
KLAX 300525Z 3006/3112 28007KT 6SM BR BKN008
     FM300900 VRB03KT 1/2SM FG VV001
     FM301500 VRB05KT 2SM BR BKN003
     FM301630 25006KT 4SM BR SCT004
     FM301900 26012KT P6SM SKC
     FM310400 26006KT P6SM SKC
     FM310800 VRB05KT 5SM BR BKN008=

USA.gov is the U.S. government's official web portal to all federal, state and local government web resources and services.